Time;durP1;ratioP1;P1;durP2;ratioP2;P2;SDS_P1;SDS_P2;PMS_P1;PMS_P2;Temp;Humidity;BMP_temperature;BMP_pressure;BME280_temperature;BME280_humidity;BME280_pressure;Samples;Min_cycle;Max_cycle;Signal;HPM_P1;HPM_P2
2022/09/15 00:00:45;;;;;;;18.30;9.55;;;15.90;99.90;;;;;;5108485;28;20031;-86
2022/09/15 00:03:12;;;;;;;11.40;9.13;;;15.90;99.90;;;;;;5100408;28;20070;-86
2022/09/15 00:05:38;;;;;;;9.55;8.80;;;15.90;99.90;;;;;;5104069;28;20111;-86
2022/09/15 00:08:03;;;;;;;11.32;9.38;;;15.90;99.90;;;;;;5103866;28;20040;-86
2022/09/15 00:10:29;;;;;;;9.73;8.73;;;15.80;99.90;;;;;;5103612;28;20062;-87
2022/09/15 00:12:55;;;;;;;9.95;9.05;;;15.90;99.90;;;;;;5103635;28;20430;-86
2022/09/15 00:15:22;;;;;;;9.95;7.38;;;15.90;99.90;;;;;;5103575;28;20020;-86
2022/09/15 00:17:50;;;;;;;10.13;9.07;;;15.80;99.90;;;;;;5118260;28;20028;-86
2022/09/15 00:20:19;;;;;;;9.00;8.18;;;15.80;99.90;;;;;;5124245;28;20036;-86
2022/09/15 00:22:46;;;;;;;11.35;9.20;;;15.80;99.90;;;;;;5108086;28;20016;-86
2022/09/15 00:25:12;;;;;;;14.85;9.07;;;15.80;99.90;;;;;;5123670;28;20044;-86
2022/09/15 00:27:39;;;;;;;12.15;9.32;;;15.80;99.90;;;;;;5107543;28;20050;-86
2022/09/15 00:30:06;;;;;;;8.73;7.82;;;15.80;99.90;;;;;;5106841;28;20420;-86
2022/09/15 00:32:32;;;;;;;9.07;8.38;;;15.80;99.90;;;;;;5107987;28;20036;-86
2022/09/15 00:34:58;;;;;;;11.10;10.05;;;15.80;99.90;;;;;;5123654;28;20091;-86
2022/09/15 00:37:24;;;;;;;12.20;7.88;;;15.70;99.90;;;;;;5116408;28;20047;-86
2022/09/15 00:39:51;;;;;;;10.52;7.85;;;15.70;99.90;;;;;;5103197;28;20035;-87
2022/09/15 00:42:20;;;;;;;10.27;9.13;;;15.80;99.90;;;;;;5103351;28;20048;-86
2022/09/15 00:44:49;;;;;;;10.93;8.85;;;15.70;99.90;;;;;;5086217;28;20104;-86
2022/09/15 00:47:15;;;;;;;12.27;10.05;;;15.80;99.90;;;;;;5096981;28;20032;-86
2022/09/15 00:49:42;;;;;;;10.35;8.23;;;15.70;99.90;;;;;;5066160;28;20132;-86
2022/09/15 00:52:34;;;;;;;9.10;8.18;;;15.70;99.90;;;;;;5065936;28;20029;-86
2022/09/15 00:55:21;;;;;;;12.30;11.10;;;15.70;99.90;;;;;;5060435;28;20052;-86
2022/09/15 00:57:54;;;;;;;9.07;8.27;;;15.70;99.90;;;;;;5087186;28;20044;-86
2022/09/15 01:00:23;;;;;;;9.18;7.28;;;15.70;99.90;;;;;;5122702;28;20053;-86
2022/09/15 01:02:50;;;;;;;16.35;9.27;;;15.70;99.90;;;;;;5106226;28;20019;-86
2022/09/15 01:05:21;;;;;;;11.00;9.68;;;15.70;99.90;;;;;;5107480;28;20059;-86
2022/09/15 01:08:04;;;;;;;11.20;10.20;;;15.70;99.90;;;;;;5096056;28;20035;-86
2022/09/15 01:10:40;;;;;;;15.90;8.68;;;15.70;99.90;;;;;;5102753;28;20028;-86
2022/09/15 01:13:11;;;;;;;11.65;9.20;;;15.70;99.90;;;;;;5102488;28;20040;-86
2022/09/15 01:16:08;;;;;;;8.70;7.75;;;15.70;99.90;;;;;;5102428;28;20060;-86
2022/09/15 01:18:52;;;;;;;12.98;8.75;;;15.60;99.90;;;;;;5086757;28;20032;-86
2022/09/15 01:21:33;;;;;;;12.43;9.50;;;15.70;99.90;;;;;;5086605;28;20033;-86
2022/09/15 01:24:14;;;;;;;11.70;9.85;;;15.60;99.90;;;;;;5086397;28;20424;-86
2022/09/15 01:26:58;;;;;;;9.95;8.95;;;15.60;99.90;;;;;;5102085;28;20048;-86
2022/09/15 01:29:42;;;;;;;10.75;9.75;;;15.60;99.90;;;;;;5108865;28;20032;-85
2022/09/15 01:35:18;;;;;;;11.93;9.45;;;15.60;99.90;;;;;;5106789;28;20085;-86
2022/09/15 01:37:54;;;;;;;14.02;9.00;;;15.60;99.90;;;;;;5121774;28;20039;-86
2022/09/15 01:40:23;;;;;;;12.35;10.98;;;15.60;99.90;;;;;;5122385;28;20030;-86
2022/09/15 01:42:51;;;;;;;16.75;8.80;;;15.60;99.90;;;;;;5106739;28;20023;-86
2022/09/15 01:45:25;;;;;;;9.40;7.57;;;15.60;99.90;;;;;;5122205;28;20032;-86
2022/09/15 01:47:54;;;;;;;11.10;9.15;;;15.60;99.90;;;;;;5105955;28;20032;-86
2022/09/15 01:50:27;;;;;;;11.48;10.27;;;15.60;99.90;;;;;;5122322;28;20039;-86
2022/09/15 01:52:58;;;;;;;11.48;8.93;;;15.60;99.90;;;;;;5117093;28;20439;-86
2022/09/15 01:55:43;;;;;;;13.30;9.55;;;15.60;99.90;;;;;;5101673;28;20039;-86
2022/09/15 01:58:09;;;;;;;10.57;9.50;;;15.60;99.90;;;;;;5097713;28;20028;-86
2022/09/15 02:00:40;;;;;;;15.70;10.85;;;15.60;99.90;;;;;;5106607;28;20024;-86
2022/09/15 02:03:22;;;;;;;8.77;7.97;;;15.60;99.90;;;;;;5122637;28;20024;-86
2022/09/15 02:05:57;;;;;;;14.13;10.02;;;15.60;99.90;;;;;;5106575;28;20028;-86
2022/09/15 02:08:51;;;;;;;11.45;10.32;;;15.60;99.90;;;;;;5121704;28;20043;-86
2022/09/15 02:11:19;;;;;;;12.85;8.23;;;15.60;99.90;;;;;;5122243;28;20043;-86
2022/09/15 02:14:12;;;;;;;10.48;8.82;;;15.60;99.90;;;;;;5106280;28;20081;-86
2022/09/15 02:16:42;;;;;;;15.43;10.48;;;15.60;99.90;;;;;;5121961;28;20032;-86
2022/09/15 02:19:11;;;;;;;;;;;15.60;99.90;;;;;;5087841;28;20024;-85
2022/09/15 02:22:11;;;;;;;11.18;9.38;;;15.60;99.90;;;;;;5067758;28;19909;-86
2022/09/15 02:24:43;;;;;;;10.75;8.45;;;15.60;99.90;;;;;;5085864;28;20031;-86
2022/09/15 02:27:15;;;;;;;9.88;8.88;;;15.60;99.90;;;;;;5081974;28;20025;-86
2022/09/15 02:29:45;;;;;;;9.95;8.95;;;15.60;99.90;;;;;;5086112;28;20025;-86
2022/09/15 02:32:15;;;;;;;9.63;8.65;;;15.60;99.90;;;;;;5085453;28;20024;-86
2022/09/15 02:34:46;;;;;;;11.23;9.05;;;15.60;99.90;;;;;;5084467;28;20021;-86
2022/09/15 02:37:13;;;;;;;11.95;10.30;;;15.60;99.90;;;;;;5088841;28;20050;-86
2022/09/15 02:39:45;;;;;;;16.67;10.32;;;15.60;99.90;;;;;;5088738;28;20095;-86
2022/09/15 02:42:12;;;;;;;11.35;8.35;;;15.60;99.90;;;;;;5090043;28;20020;-86
2022/09/15 02:44:38;;;;;;;12.95;9.88;;;15.60;99.90;;;;;;5089754;28;20055;-86
2022/09/15 02:47:03;;;;;;;14.15;9.70;;;15.60;99.90;;;;;;5089884;28;20032;-86
2022/09/15 02:49:29;;;;;;;13.25;9.85;;;15.60;99.90;;;;;;5089689;28;20033;-86
2022/09/15 02:51:55;;;;;;;10.68;9.68;;;15.60;99.90;;;;;;5105248;28;20025;-86
2022/09/15 02:54:21;;;;;;;14.82;9.90;;;15.60;99.90;;;;;;5105458;28;20036;-86
2022/09/15 02:56:47;;;;;;;9.95;8.98;;;15.50;99.90;;;;;;5103951;28;20036;-86
2022/09/15 02:59:13;;;;;;;9.55;8.55;;;15.50;99.90;;;;;;5089628;28;20028;-86
2022/09/15 03:01:39;;;;;;;14.27;9.10;;;15.50;99.90;;;;;;5105427;28;20020;-86
2022/09/15 03:04:06;;;;;;;16.90;10.00;;;15.60;99.90;;;;;;5104973;28;20028;-85
2022/09/15 03:06:35;;;;;;;10.23;9.32;;;15.50;99.90;;;;;;5089353;28;20112;-86
2022/09/15 03:09:06;;;;;;;9.90;8.90;;;15.60;99.90;;;;;;5088273;28;20029;-86
2022/09/15 03:11:33;;;;;;;12.38;8.00;;;15.50;99.90;;;;;;5105005;28;20111;-86
2022/09/15 03:14:01;;;;;;;14.68;11.80;;;15.50;99.90;;;;;;5104251;28;20029;-86
2022/09/15 03:16:29;;;;;;;11.23;10.10;;;15.50;99.90;;;;;;5104882;28;20024;-86
2022/09/15 03:18:58;;;;;;;12.48;10.63;;;15.50;99.90;;;;;;5100801;28;20088;-86
2022/09/15 03:21:25;;;;;;;18.03;10.50;;;15.50;99.90;;;;;;5088769;28;20028;-86
2022/09/15 03:23:50;;;;;;;11.05;9.73;;;15.50;99.90;;;;;;5104448;28;20795;-86
2022/09/15 03:26:17;;;;;;;10.77;9.80;;;15.60;99.90;;;;;;5087295;28;20056;-86
2022/09/15 03:28:42;;;;;;;9.98;9.07;;;15.50;99.90;;;;;;5102465;28;20032;-85
2022/09/15 03:31:08;;;;;;;12.55;10.27;;;15.50;99.90;;;;;;5092190;28;20054;-86
2022/09/15 03:33:35;;;;;;;17.48;9.85;;;15.50;99.90;;;;;;5088526;28;20020;-86
2022/09/15 03:36:01;;;;;;;11.52;10.32;;;15.50;99.90;;;;;;5103877;28;20047;-86
2022/09/15 03:38:28;;;;;;;14.02;10.90;;;15.50;99.90;;;;;;5104211;28;20024;-86
2022/09/15 03:41:09;;;;;;;19.15;10.45;;;15.50;99.90;;;;;;5088567;28;20020;-86
2022/09/15 03:43:36;;;;;;;11.57;10.45;;;15.60;99.90;;;;;;5087415;28;20407;-86
2022/09/15 03:46:04;;;;;;;19.60;10.52;;;15.50;99.90;;;;;;5088653;28;20029;-86
2022/09/15 03:48:33;;;;;;;10.55;9.35;;;15.50;99.90;;;;;;5087059;28;20033;-86
2022/09/15 03:50:59;;;;;;;8.90;8.03;;;15.50;99.90;;;;;;5088828;28;20028;-86
2022/09/15 03:53:25;;;;;;;14.77;9.70;;;15.50;99.90;;;;;;5087094;28;20055;-87
2022/09/15 03:55:51;;;;;;;13.50;9.77;;;15.50;99.90;;;;;;5104165;28;20474;-86
2022/09/15 03:58:18;;;;;;;9.23;8.38;;;15.50;99.90;;;;;;5096877;28;20028;-86
2022/09/15 04:00:45;;;;;;;12.43;7.10;;;15.50;99.90;;;;;;5108643;28;20046;-86
2022/09/15 04:03:11;;;;;;;10.50;8.52;;;15.50;99.90;;;;;;5109197;28;20028;-86
2022/09/15 04:05:37;;;;;;;11.85;8.20;;;15.50;99.90;;;;;;5124462;28;20448;-84
2022/09/15 04:08:03;;;;;;;11.57;10.35;;;15.40;99.90;;;;;;5123659;28;20031;-86
2022/09/15 04:10:29;;;;;;;10.07;8.50;;;15.50;99.90;;;;;;5107277;28;20043;-86
2022/09/15 04:12:55;;;;;;;10.77;9.35;;;15.50;99.90;;;;;;5108487;28;20024;-86
2022/09/15 04:15:21;;;;;;;10.27;9.32;;;15.40;99.90;;;;;;5106833;28;20402;-85
2022/09/15 04:17:47;;;;;;;8.57;7.70;;;15.50;99.90;;;;;;5106714;28;20017;-86
2022/09/15 04:20:13;;;;;;;10.52;9.40;;;15.40;99.90;;;;;;5108299;28;20416;-86
2022/09/15 04:22:40;;;;;;;7.68;6.97;;;15.40;99.90;;;;;;5108142;28;20085;-86
2022/09/15 04:25:08;;;;;;;13.68;10.52;;;15.40;99.90;;;;;;5123778;28;20044;-85
2022/09/15 04:27:35;;;;;;;8.13;7.38;;;15.40;99.90;;;;;;5106322;28;20032;-86
2022/09/15 04:30:01;;;;;;;10.93;7.93;;;15.40;99.90;;;;;;5101386;28;20495;-86
2022/09/15 04:32:28;;;;;;;17.48;8.77;;;15.40;99.90;;;;;;5085907;28;20036;-86
2022/09/15 04:34:54;;;;;;;11.00;9.48;;;15.40;99.90;;;;;;5100561;28;20033;-85
2022/09/15 04:37:21;;;;;;;11.32;10.30;;;15.40;99.90;;;;;;5103410;28;20871;-85
2022/09/15 04:39:48;;;;;;;11.90;8.40;;;15.40;99.90;;;;;;5101215;28;20091;-86
2022/09/15 04:42:14;;;;;;;11.25;9.43;;;;;;;;;;5081602;28;20067;-86
2022/09/15 04:44:40;;;;;;;8.82;7.97;;;15.40;99.90;;;;;;5068307;28;20017;-86
2022/09/15 04:47:06;;;;;;;11.90;9.40;;;15.40;99.90;;;;;;5062071;28;20025;-85
2022/09/15 04:49:32;;;;;;;9.00;8.10;;;15.40;99.90;;;;;;5086952;28;20024;-86
2022/09/15 04:51:58;;;;;;;14.38;8.68;;;15.30;99.90;;;;;;5087261;28;20025;-85
2022/09/15 04:54:24;;;;;;;9.48;8.23;;;15.40;99.90;;;;;;5086129;28;20107;-85
2022/09/15 04:56:49;;;;;;;8.40;7.57;;;15.40;99.90;;;;;;5103235;28;20097;-85
2022/09/15 04:59:17;;;;;;;12.77;8.57;;;15.40;99.90;;;;;;5070804;28;20044;-85
2022/09/15 05:01:44;;;;;;;10.10;8.93;;;15.40;99.90;;;;;;5088468;28;20037;-86
2022/09/15 05:04:11;;;;;;;8.73;7.88;;;15.40;99.90;;;;;;5045489;28;20082;-85
2022/09/15 05:06:37;;;;;;;11.57;8.65;;;15.40;99.90;;;;;;5084632;28;20033;-85
2022/09/15 05:09:05;;;;;;;13.45;7.28;;;15.40;99.90;;;;;;5081396;28;20024;-85
2022/09/15 05:11:31;;;;;;;10.88;8.63;;;15.30;99.90;;;;;;5092627;28;20028;-86
2022/09/15 05:13:58;;;;;;;14.90;10.00;;;15.30;99.90;;;;;;5087938;28;20017;-85
2022/09/15 05:16:26;;;;;;;11.25;10.05;;;15.30;99.90;;;;;;5101626;28;20028;-85
2022/09/15 05:18:54;;;;;;;11.07;10.00;;;15.30;99.90;;;;;;5085664;28;20025;-85
2022/09/15 05:21:23;;;;;;;12.98;9.88;;;15.30;99.90;;;;;;5101725;28;20025;-84
2022/09/15 05:23:52;;;;;;;10.73;9.60;;;15.30;99.90;;;;;;5089024;28;20016;-84
2022/09/15 05:26:21;;;;;;;10.27;9.20;;;15.30;99.90;;;;;;5095209;28;20048;-84
2022/09/15 05:28:47;;;;;;;11.48;10.30;;;15.20;99.90;;;;;;5103162;28;20028;-85
2022/09/15 05:31:20;;;;;;;10.23;9.35;;;15.30;99.90;;;;;;5097404;28;20044;-84
2022/09/15 05:33:48;;;;;;;7.95;7.13;;;15.20;99.90;;;;;;5092800;28;20070;-85
2022/09/15 05:36:16;;;;;;;11.32;10.13;;;15.20;99.90;;;;;;5098887;28;20033;-84
2022/09/15 05:38:42;;;;;;;11.85;10.65;;;15.20;99.90;;;;;;5066977;28;20032;-85
2022/09/15 05:41:15;;;;;;;11.48;9.73;;;15.20;99.90;;;;;;5078314;28;20028;-85
2022/09/15 05:43:43;;;;;;;9.52;8.52;;;15.20;99.90;;;;;;5093602;28;20033;-83
2022/09/15 05:46:10;;;;;;;9.10;8.10;;;15.20;99.90;;;;;;5086181;28;20409;-85
2022/09/15 05:48:36;;;;;;;9.75;8.95;;;15.20;99.90;;;;;;5086163;28;20565;-84
2022/09/15 05:51:03;;;;;;;13.57;9.30;;;15.20;99.90;;;;;;5087075;28;20016;-84
2022/09/15 05:53:29;;;;;;;11.75;9.63;;;15.20;99.90;;;;;;5091158;28;20024;-83
2022/09/15 05:56:01;;;;;;;11.02;10.10;;;15.20;99.90;;;;;;5106577;28;20032;-84
2022/09/15 05:58:28;;;;;;;11.45;9.85;;;15.20;99.90;;;;;;5106347;28;20040;-83
2022/09/15 06:00:54;;;;;;;10.30;9.02;;;15.20;99.90;;;;;;5088800;28;20021;-84
2022/09/15 06:03:22;;;;;;;11.77;9.05;;;15.20;99.90;;;;;;5088859;28;20048;-84
2022/09/15 06:05:48;;;;;;;14.20;9.43;;;15.20;99.90;;;;;;5106438;28;20043;-84
2022/09/15 06:08:15;;;;;;;11.18;9.75;;;15.20;99.90;;;;;;5089003;28;20037;-83
2022/09/15 06:10:41;;;;;;;10.70;9.48;;;15.20;99.90;;;;;;5067707;28;20032;-84
2022/09/15 06:13:07;;;;;;;11.00;8.50;;;15.30;99.90;;;;;;5087109;28;20525;-84
2022/09/15 06:15:32;;;;;;;11.85;9.07;;;15.20;99.90;;;;;;5101489;28;20060;-85
2022/09/15 06:17:58;;;;;;;9.57;8.50;;;15.30;99.90;;;;;;5101853;28;20028;-84
2022/09/15 06:20:24;;;;;;;11.70;8.52;;;15.30;99.90;;;;;;5087648;28;20025;-84
2022/09/15 06:22:52;;;;;;;15.50;7.45;;;15.30;99.90;;;;;;5085993;28;20104;-84
2022/09/15 06:25:18;;;;;;;9.07;8.13;;;15.30;99.90;;;;;;5120754;28;20087;-84
2022/09/15 06:27:43;;;;;;;10.93;7.88;;;15.30;99.90;;;;;;5122223;28;20032;-84
2022/09/15 06:30:10;;;;;;;10.70;9.60;;;15.30;99.90;;;;;;5104883;28;20027;-84
2022/09/15 06:32:36;;;;;;;7.35;6.70;;;15.30;99.90;;;;;;5106284;28;20032;-84
2022/09/15 06:35:06;;;;;;;10.35;8.30;;;15.30;99.90;;;;;;5104243;28;20122;-84
2022/09/15 06:37:33;;;;;;;9.80;8.15;;;15.30;99.90;;;;;;5106199;28;20060;-84
2022/09/15 06:39:59;;;;;;;9.90;7.85;;;15.30;99.90;;;;;;5105092;28;20016;-84
2022/09/15 06:42:25;;;;;;;8.75;7.95;;;15.30;99.90;;;;;;5106277;28;20035;-85
2022/09/15 06:44:52;;;;;;;12.75;9.02;;;15.30;99.90;;;;;;5089155;28;20071;-84
2022/09/15 06:47:18;;;;;;;8.68;7.93;;;15.40;99.90;;;;;;5099566;28;20024;-84
2022/09/15 06:49:44;;;;;;;9.18;8.13;;;15.40;99.90;;;;;;5085820;28;20041;-84
2022/09/15 06:52:10;;;;;;;11.57;8.38;;;15.40;99.90;;;;;;5085740;28;20089;-84
2022/09/15 06:54:36;;;;;;;10.85;8.10;;;15.40;99.90;;;;;;5085708;28;20028;-84
2022/09/15 06:57:02;;;;;;;8.80;7.95;;;15.40;99.90;;;;;;5085169;28;20025;-84
2022/09/15 06:59:27;;;;;;;12.23;9.20;;;15.40;99.90;;;;;;5085545;28;20029;-84
2022/09/15 07:01:54;;;;;;;11.85;8.52;;;15.40;99.90;;;;;;5084442;28;20089;-84
2022/09/15 07:04:21;;;;;;;10.15;9.05;;;15.40;99.90;;;;;;5085479;28;20028;-84
2022/09/15 07:06:49;;;;;;;10.18;7.75;;;15.50;99.90;;;;;;5102691;28;20104;-85
2022/09/15 07:09:15;;;;;;;9.55;7.93;;;15.50;99.90;;;;;;5121421;28;20035;-84
2022/09/15 07:11:41;;;;;;;8.48;7.60;;;15.50;99.90;;;;;;5105573;28;20048;-85
2022/09/15 07:14:07;;;;;;;11.73;8.90;;;15.50;99.90;;;;;;5105770;28;20035;-84
2022/09/15 07:16:33;;;;;;;10.30;8.07;;;15.50;99.90;;;;;;5105620;28;20021;-85
2022/09/15 07:19:00;;;;;;;9.50;8.50;;;15.60;99.90;;;;;;5081096;28;20040;-85
2022/09/15 07:21:26;;;;;;;9.73;8.77;;;15.50;99.90;;;;;;5080621;28;20096;-84
2022/09/15 07:23:56;;;;;;;9.02;7.65;;;15.60;99.90;;;;;;5050000;28;20032;-85
2022/09/15 07:26:27;;;;;;;9.38;8.43;;;15.60;99.90;;;;;;5068796;28;20053;-84
2022/09/15 07:28:58;;;;;;;8.88;7.80;;;15.60;99.90;;;;;;5087928;28;20039;-85
2022/09/15 07:31:27;;;;;;;11.90;7.30;;;15.60;99.90;;;;;;5088874;28;20066;-85
2022/09/15 07:33:53;;;;;;;9.27;8.38;;;15.60;99.90;;;;;;5104431;28;20060;-84
2022/09/15 07:36:19;;;;;;;8.15;7.43;;;15.60;99.90;;;;;;5104319;28;20033;-85
2022/09/15 07:38:47;;;;;;;9.57;8.68;;;15.60;99.90;;;;;;5070436;28;20052;-84
2022/09/15 07:41:15;;;;;;;8.20;7.45;;;15.60;99.90;;;;;;5104314;28;20078;-85
2022/09/15 07:43:48;;;;;;;10.77;8.10;;;15.60;99.90;;;;;;5104201;28;20088;-84
2022/09/15 07:46:14;;;;;;;12.07;8.23;;;15.60;99.90;;;;;;5104166;28;20037;-85
2022/09/15 07:48:46;;;;;;;11.13;8.70;;;15.60;99.90;;;;;;5120610;28;20111;-85
2022/09/15 07:51:13;;;;;;;15.20;9.20;;;15.60;99.90;;;;;;5124717;28;20035;-85
2022/09/15 07:53:38;;;;;;;8.98;8.07;;;15.60;99.90;;;;;;5108715;28;20099;-85
2022/09/15 07:56:04;;;;;;;9.20;7.07;;;15.70;99.90;;;;;;5107163;28;20051;-85
2022/09/15 07:58:32;;;;;;;9.25;8.40;;;15.70;99.90;;;;;;5109285;28;20043;-85
2022/09/15 08:01:10;;;;;;;8.82;7.70;;;15.70;99.90;;;;;;5103872;28;20136;-85
2022/09/15 08:03:50;;;;;;;6.88;6.28;;;15.80;99.90;;;;;;5103854;28;20047;-85
2022/09/15 08:06:21;;;;;;;9.82;7.20;;;15.80;99.90;;;;;;5103890;28;20044;-85
2022/09/15 08:08:47;;;;;;;7.68;6.88;;;15.80;99.90;;;;;;5104983;28;20043;-85
2022/09/15 08:11:17;;;;;;;7.00;6.40;;;15.80;99.90;;;;;;5108373;28;20044;-85
2022/09/15 08:13:43;;;;;;;6.97;6.43;;;15.80;99.90;;;;;;5124185;28;20092;-86
2022/09/15 08:16:11;;;;;;;6.80;6.22;;;15.90;99.90;;;;;;5117685;28;20032;-86
2022/09/15 08:18:40;;;;;;;10.77;6.72;;;15.90;99.90;;;;;;5103751;28;20021;-85
2022/09/15 08:21:08;;;;;;;7.30;6.63;;;16.00;99.90;;;;;;5087729;28;20452;-85
2022/09/15 08:23:36;;;;;;;11.88;6.93;;;15.90;99.90;;;;;;5103582;28;20036;-86
2022/09/15 08:26:05;;;;;;;6.45;5.82;;;16.00;99.90;;;;;;5108218;28;20048;-85
2022/09/15 08:28:31;;;;;;;11.27;7.30;;;16.00;99.90;;;;;;5108126;28;20039;-85
2022/09/15 08:31:02;;;;;;;7.20;5.50;;;16.00;99.90;;;;;;5108007;28;20024;-85
2022/09/15 08:33:28;;;;;;;6.10;5.50;;;16.00;99.90;;;;;;5123839;28;20064;-86
2022/09/15 08:36:00;;;;;;;8.45;5.45;;;16.00;99.90;;;;;;5104426;28;20378;-86
2022/09/15 08:38:26;;;;;;;5.50;5.07;;;16.00;99.90;;;;;;5087602;28;20035;-86
2022/09/15 08:41:02;;;;;;;4.88;4.47;;;16.00;99.90;;;;;;5103321;28;20033;-86
2022/09/15 08:43:49;;;;;;;7.80;5.50;;;16.00;99.90;;;;;;5103390;28;20031;-86
2022/09/15 08:46:23;;;;;;;6.15;4.95;;;16.00;99.90;;;;;;5085859;28;20063;-86
2022/09/15 08:49:11;;;;;;;10.45;6.18;;;16.00;99.90;;;;;;5087392;28;20088;-86
2022/09/15 08:51:47;;;;;;;7.20;4.40;;;16.10;99.90;;;;;;5086198;28;20044;-86
2022/09/15 08:54:19;;;;;;;5.63;4.25;;;16.10;99.90;;;;;;5087318;28;20099;-86
2022/09/15 08:56:46;;;;;;;5.85;4.05;;;16.10;99.90;;;;;;5085531;28;20479;-86
2022/09/15 08:59:15;;;;;;;7.38;4.75;;;16.10;99.90;;;;;;5102642;28;20104;-86
2022/09/15 09:01:59;;;;;;;4.05;3.75;;;16.10;99.90;;;;;;5102859;28;20471;-85
2022/09/15 09:04:53;;;;;;;11.30;5.07;;;16.10;99.90;;;;;;5087031;28;20021;-86
2022/09/15 09:07:37;;;;;;;5.38;4.45;;;16.20;99.90;;;;;;5088803;28;20109;-86
2022/09/15 09:10:24;;;;;;;5.38;4.07;;;16.20;99.90;;;;;;5123044;28;20062;-86
2022/09/15 09:13:18;;;;;;;5.82;3.53;;;16.20;99.90;;;;;;5107348;28;20028;-86
2022/09/15 09:16:25;;;;;;;4.28;2.85;;;16.20;99.90;;;;;;5105913;28;20032;-86
2022/09/15 09:19:21;;;;;;;5.28;4.57;;;16.20;99.90;;;;;;5085098;28;20120;-86
2022/09/15 09:22:00;;;;;;;3.90;2.72;;;16.20;99.90;;;;;;5078523;28;20032;-86
2022/09/15 09:24:40;;;;;;;4.45;4.03;;;16.30;99.90;;;;;;5102308;28;20028;-86
2022/09/15 09:27:18;;;;;;;8.82;4.68;;;16.30;99.90;;;;;;5098787;28;20070;-86
2022/09/15 09:29:50;;;;;;;3.47;3.17;;;16.30;99.90;;;;;;5105287;28;20028;-86
2022/09/15 09:32:25;;;;;;;3.13;2.78;;;16.30;99.90;;;;;;5105587;28;20055;-86
2022/09/15 09:35:04;;;;;;;3.08;2.60;;;16.30;99.90;;;;;;5122802;28;20035;-86
2022/09/15 09:37:31;;;;;;;5.68;2.67;;;16.30;99.90;;;;;;5091096;28;20402;-86
2022/09/15 09:39:57;;;;;;;6.55;2.92;;;16.30;99.90;;;;;;5086416;28;20031;-87
2022/09/15 09:42:29;;;;;;;2.80;2.53;;;16.30;99.90;;;;;;5085210;28;20028;-87
2022/09/15 09:44:56;;;;;;;3.05;2.28;;;16.30;99.90;;;;;;5102011;28;20029;-86
2022/09/15 09:47:31;;;;;;;4.68;2.33;;;16.40;99.90;;;;;;5099533;28;20031;-87
2022/09/15 09:49:58;;;;;;;4.07;3.38;;;16.30;99.90;;;;;;5106699;28;20032;-86
2022/09/15 09:52:35;;;;;;;3.38;3.08;;;16.30;99.90;;;;;;5106642;28;20028;-86
2022/09/15 09:55:17;;;;;;;3.35;2.67;;;16.40;99.90;;;;;;5106481;28;20359;-87
2022/09/15 09:57:43;;;;;;;3.67;2.63;;;16.30;99.90;;;;;;5088839;28;20028;-87
2022/09/15 10:06:41;;;;;;;;;;;15.70;99.90;;;;;;5375881;23;20056;-96
2022/09/15 10:09:09;;;;;;;;;;;18.10;99.90;;;;;;4909081;29;19985;-95
2022/09/15 10:11:45;;;;;;;;;;;15.80;99.90;;;;;;4976308;28;19994;-95
2022/09/15 10:14:32;;;;;;;;;;;16.00;99.90;;;;;;4957390;28;19987;-95
2022/09/15 10:17:15;;;;;;;;;;;16.00;99.90;;;;;;4970964;28;20007;-95
2022/09/15 10:19:44;;;;;;;;;;;16.00;99.90;;;;;;4974738;28;20025;-96
2022/09/15 10:22:32;;;;;;;;;;;16.10;99.90;;;;;;4974123;28;19986;-95
2022/09/15 10:25:02;;;;;;;;;;;16.20;99.90;;;;;;4975232;28;19987;-96
2022/09/15 10:27:27;;;;;;;;;;;16.20;99.90;;;;;;4990602;28;20469;-95
2022/09/15 10:29:54;;;;;;;;;;;16.20;99.90;;;;;;5006788;28;19994;-95
2022/09/15 10:32:27;;;;;;;;;;;16.10;99.90;;;;;;4989323;28;19987;-95
2022/09/15 10:35:05;;;;;;;;;;;16.20;99.90;;;;;;4972829;28;20367;-95
2022/09/15 10:37:44;;;;;;;;;;;16.30;99.90;;;;;;5006395;28;19986;-94
2022/09/15 10:40:19;;;;;;;;;;;16.30;99.90;;;;;;4989135;28;19982;-94
2022/09/15 10:42:52;;;;;;;;;;;16.30;99.90;;;;;;4989204;28;19986;-93
2022/09/15 10:45:28;;;;;;;;;;;16.20;99.90;;;;;;4989256;28;19987;-93
2022/09/15 12:28:22;;;;;;;0.00;0.00;;;15.40;99.90;;;;;;5083605;28;20398;-91
2022/09/15 12:31:25;;;;;;;0.00;0.00;;;15.70;99.90;;;;;;5065545;28;20056;-91
2022/09/15 12:34:05;;;;;;;0.00;0.00;;;15.90;99.90;;;;;;5082034;28;20078;-90
2022/09/15 12:36:45;;;;;;;0.00;0.00;;;15.80;99.90;;;;;;5082244;28;20025;-91
2022/09/15 12:39:36;;;;;;;0.00;0.00;;;15.90;99.90;;;;;;5078014;28;20061;-91
2022/09/15 12:42:20;;;;;;;0.00;0.00;;;15.80;99.90;;;;;;5085402;28;20548;-90
2022/09/15 12:45:20;;;;;;;0.00;0.00;;;16.00;99.90;;;;;;5103527;28;20075;-91
2022/09/15 12:47:59;;;;;;;0.00;0.00;;;16.10;99.90;;;;;;5102177;28;20100;-90
2022/09/15 12:50:31;;;;;;;0.00;0.00;;;16.10;99.90;;;;;;5102113;28;20033;-89
2022/09/15 12:53:21;;;;;;;0.00;0.00;;;16.00;99.90;;;;;;5095110;28;20063;-88
2022/09/15 12:55:51;;;;;;;0.00;0.00;;;16.00;99.90;;;;;;5072021;28;20041;-87
2022/09/15 12:58:36;;;;;;;0.00;0.00;;;16.00;99.90;;;;;;5083020;28;20057;-87
2022/09/15 13:01:17;;;;;;;0.00;0.00;;;16.00;99.90;;;;;;5082859;28;20040;-86
2022/09/15 13:03:44;;;;;;;0.00;0.00;;;16.10;99.90;;;;;;5081564;28;20032;-88
2022/09/15 13:06:09;;;;;;;0.00;0.00;;;16.10;99.90;;;;;;5080735;28;20039;-88
2022/09/15 13:08:35;;;;;;;0.00;0.00;;;16.10;99.90;;;;;;5081523;28;20029;-88
2022/09/15 13:11:16;;;;;;;0.00;0.00;;;16.00;99.90;;;;;;5082557;28;20495;-88
2022/09/15 13:13:53;;;;;;;0.00;0.00;;;16.10;99.90;;;;;;5065843;28;20033;-88
2022/09/15 13:16:43;;;;;;;0.00;0.00;;;16.10;99.90;;;;;;5079257;28;20028;-88
2022/09/15 13:19:45;;;;;;;0.00;0.00;;;16.10;99.90;;;;;;5080872;28;20025;-88
2022/09/15 13:22:11;;;;;;;0.00;0.00;;;16.10;99.90;;;;;;5062437;28;20067;-88
2022/09/15 13:24:58;;;;;;;0.00;0.00;;;16.10;99.90;;;;;;5044548;28;20032;-88
2022/09/15 13:27:45;;;;;;;0.00;0.00;;;16.20;99.90;;;;;;5056982;28;20068;-88
2022/09/15 13:30:23;;;;;;;0.00;0.00;;;16.20;99.90;;;;;;5057720;28;20042;-88
2022/09/15 13:33:14;;;;;;;0.00;0.00;;;16.20;99.90;;;;;;5042386;28;20473;-87
2022/09/15 13:36:07;;;;;;;0.00;0.00;;;16.20;99.90;;;;;;5041180;28;20498;-87
2022/09/15 13:39:10;;;;;;;0.00;0.00;;;16.20;99.90;;;;;;5033968;28;20034;-87
2022/09/15 13:42:02;;;;;;;0.00;0.00;;;16.20;99.90;;;;;;5027871;28;20060;-87
2022/09/15 13:45:10;;;;;;;0.00;0.00;;;16.30;99.90;;;;;;5027746;28;20033;-87
2022/09/15 13:47:42;;;;;;;0.00;0.00;;;16.40;99.90;;;;;;5047478;28;20441;-87
2022/09/15 13:50:18;;;;;;;0.00;0.00;;;16.40;99.90;;;;;;5030572;28;20041;-87
2022/09/15 13:53:08;;;;;;;0.00;0.00;;;16.40;99.90;;;;;;5047333;28;20026;-87
2022/09/15 13:55:38;;;;;;;0.00;0.00;;;16.30;99.90;;;;;;5030088;28;20038;-87
2022/09/15 13:58:08;;;;;;;0.00;0.00;;;16.30;99.90;;;;;;5048623;28;20080;-88
2022/09/15 14:00:53;;;;;;;0.00;0.00;;;16.30;99.90;;;;;;5047436;28;20072;-87
2022/09/15 14:03:28;;;;;;;0.00;0.00;;;16.40;99.90;;;;;;5047065;28;20157;-87
2022/09/15 14:05:55;;;;;;;0.00;0.00;;;16.40;99.90;;;;;;5022159;28;20029;-87
2022/09/15 14:08:31;;;;;;;0.00;0.00;;;16.40;99.90;;;;;;5041287;28;20085;-88
2022/09/15 14:11:10;;;;;;;0.00;0.00;;;16.50;99.90;;;;;;5047089;28;20021;-88
2022/09/15 14:13:40;;;;;;;0.00;0.00;;;16.50;99.90;;;;;;5047002;28;20033;-88
2022/09/15 14:16:36;;;;;;;0.00;0.00;;;16.50;99.90;;;;;;5046941;28;20052;-88
2022/09/15 14:19:29;;;;;;;0.00;0.00;;;16.40;99.90;;;;;;5047268;28;20024;-88
2022/09/15 14:21:55;;;;;;;0.00;0.00;;;16.40;99.90;;;;;;5045060;28;20045;-88
2022/09/15 14:24:28;;;;;;;0.00;0.00;;;16.30;99.90;;;;;;5046600;28;20052;-88
2022/09/15 14:26:54;;;;;;;0.00;0.00;;;16.30;99.90;;;;;;5047760;28;20084;-89
2022/09/15 14:29:23;;;;;;;0.00;0.00;;;16.30;99.90;;;;;;5040038;28;20034;-88
2022/09/15 14:31:49;;;;;;;0.00;0.00;;;16.30;99.90;;;;;;5037545;28;20112;-88
2022/09/15 14:34:21;;;;;;;0.00;0.00;;;16.20;99.90;;;;;;5046235;28;20037;-89
2022/09/15 14:36:57;;;;;;;0.00;0.00;;;16.30;99.90;;;;;;5010406;28;20057;-89
2022/09/15 14:39:23;;;;;;;0.00;0.00;;;16.20;99.90;;;;;;5026721;28;20382;-90
2022/09/15 14:41:49;;;;;;;0.00;0.00;;;16.10;99.90;;;;;;5010409;28;20030;-88
2022/09/15 14:44:26;;;;;;;0.00;0.00;;;16.10;99.90;;;;;;5035157;28;20089;-89
2022/09/15 14:46:53;;;;;;;0.00;0.00;;;16.10;99.90;;;;;;5045988;28;20112;-89
2022/09/15 14:49:20;;;;;;;0.00;0.00;;;16.10;99.90;;;;;;5029395;28;20022;-90
2022/09/15 14:51:48;;;;;;;0.00;0.00;;;16.10;99.90;;;;;;5045823;28;20036;-90
2022/09/15 14:54:26;;;;;;;0.00;0.00;;;16.10;99.90;;;;;;5029731;28;20029;-90
2022/09/15 14:56:56;;;;;;;0.00;0.00;;;16.10;99.90;;;;;;5046119;28;20087;-90
2022/09/15 14:59:56;;;;;;;0.00;0.00;;;16.10;99.90;;;;;;5045660;28;20053;-90